sensor_id;sensor_type;location;lat;lon;timestamp;P1;durP1;ratioP1;P2;durP2;ratioP2
7939;SDS011;4015;48.888;9.226;2023-09-07T00:00:09;5.72;;;4.35;;
7939;SDS011;4015;48.888;9.226;2023-09-07T00:02:35;6.25;;;4.35;;
7939;SDS011;4015;48.888;9.226;2023-09-07T00:05:01;4.07;;;3.67;;
7939;SDS011;4015;48.888;9.226;2023-09-07T00:07:26;4.88;;;4.38;;
7939;SDS011;4015;48.888;9.226;2023-09-07T00:09:51;6.47;;;4.75;;
7939;SDS011;4015;48.888;9.226;2023-09-07T00:12:17;5.43;;;4.53;;
7939;SDS011;4015;48.888;9.226;2023-09-07T00:14:42;7.38;;;4.40;;
7939;SDS011;4015;48.888;9.226;2023-09-07T00:17:07;4.82;;;4.32;;
7939;SDS011;4015;48.888;9.226;2023-09-07T00:19:33;4.82;;;4.15;;
7939;SDS011;4015;48.888;9.226;2023-09-07T00:22:01;5.40;;;4.57;;
7939;SDS011;4015;48.888;9.226;2023-09-07T00:24:27;5.00;;;4.50;;
7939;SDS011;4015;48.888;9.226;2023-09-07T00:26:53;4.72;;;4.32;;
7939;SDS011;4015;48.888;9.226;2023-09-07T00:29:18;5.28;;;4.78;;
7939;SDS011;4015;48.888;9.226;2023-09-07T00:31:43;5.43;;;4.07;;
7939;SDS011;4015;48.888;9.226;2023-09-07T00:34:09;4.90;;;4.50;;
7939;SDS011;4015;48.888;9.226;2023-09-07T00:36:34;4.95;;;4.45;;
7939;SDS011;4015;48.888;9.226;2023-09-07T00:39:00;5.80;;;4.18;;
7939;SDS011;4015;48.888;9.226;2023-09-07T00:41:25;5.97;;;5.30;;
7939;SDS011;4015;48.888;9.226;2023-09-07T00:43:51;6.85;;;4.53;;
7939;SDS011;4015;48.888;9.226;2023-09-07T00:46:16;5.22;;;4.72;;
7939;SDS011;4015;48.888;9.226;2023-09-07T00:48:42;8.20;;;5.10;;
7939;SDS011;4015;48.888;9.226;2023-09-07T00:51:07;5.38;;;4.50;;
7939;SDS011;4015;48.888;9.226;2023-09-07T00:53:33;4.95;;;4.45;;
7939;SDS011;4015;48.888;9.226;2023-09-07T00:55:58;4.65;;;3.72;;
7939;SDS011;4015;48.888;9.226;2023-09-07T00:58:24;4.22;;;3.83;;
7939;SDS011;4015;48.888;9.226;2023-09-07T01:00:49;5.90;;;3.60;;
7939;SDS011;4015;48.888;9.226;2023-09-07T01:03:15;5.25;;;3.97;;
7939;SDS011;4015;48.888;9.226;2023-09-07T01:08:10;4.50;;;4.03;;
7939;SDS011;4015;48.888;9.226;2023-09-07T01:10:40;5.03;;;4.32;;
7939;SDS011;4015;48.888;9.226;2023-09-07T01:13:05;4.45;;;4.05;;
7939;SDS011;4015;48.888;9.226;2023-09-07T01:15:30;6.75;;;4.03;;
7939;SDS011;4015;48.888;9.226;2023-09-07T01:17:56;6.40;;;3.88;;
7939;SDS011;4015;48.888;9.226;2023-09-07T01:20:23;4.47;;;4.07;;
7939;SDS011;4015;48.888;9.226;2023-09-07T01:22:50;6.18;;;4.20;;
7939;SDS011;4015;48.888;9.226;2023-09-07T01:25:16;4.85;;;3.80;;
7939;SDS011;4015;48.888;9.226;2023-09-07T01:27:41;6.95;;;4.63;;
7939;SDS011;4015;48.888;9.226;2023-09-07T01:30:07;4.80;;;4.28;;
7939;SDS011;4015;48.888;9.226;2023-09-07T01:32:33;4.60;;;4.18;;
7939;SDS011;4015;48.888;9.226;2023-09-07T01:34:58;8.90;;;4.30;;
7939;SDS011;4015;48.888;9.226;2023-09-07T01:37:25;4.82;;;4.22;;
7939;SDS011;4015;48.888;9.226;2023-09-07T01:39:50;5.18;;;4.18;;
7939;SDS011;4015;48.888;9.226;2023-09-07T01:42:16;4.68;;;4.18;;
7939;SDS011;4015;48.888;9.226;2023-09-07T01:44:41;5.35;;;4.25;;
7939;SDS011;4015;48.888;9.226;2023-09-07T01:47:08;4.55;;;3.80;;
7939;SDS011;4015;48.888;9.226;2023-09-07T01:49:33;4.72;;;4.30;;
7939;SDS011;4015;48.888;9.226;2023-09-07T01:51:59;6.22;;;4.47;;
7939;SDS011;4015;48.888;9.226;2023-09-07T01:54:24;4.35;;;3.95;;
7939;SDS011;4015;48.888;9.226;2023-09-07T01:56:50;4.53;;;4.07;;
7939;SDS011;4015;48.888;9.226;2023-09-07T01:59:15;5.15;;;4.65;;
7939;SDS011;4015;48.888;9.226;2023-09-07T02:01:41;4.97;;;4.50;;
7939;SDS011;4015;48.888;9.226;2023-09-07T02:04:06;5.63;;;4.47;;
7939;SDS011;4015;48.888;9.226;2023-09-07T02:06:31;7.57;;;4.53;;
7939;SDS011;4015;48.888;9.226;2023-09-07T02:08:57;5.72;;;4.55;;
7939;SDS011;4015;48.888;9.226;2023-09-07T02:11:22;4.82;;;4.43;;
7939;SDS011;4015;48.888;9.226;2023-09-07T02:13:48;7.07;;;4.65;;
7939;SDS011;4015;48.888;9.226;2023-09-07T02:16:13;8.50;;;4.78;;
7939;SDS011;4015;48.888;9.226;2023-09-07T02:18:38;4.93;;;4.53;;
7939;SDS011;4015;48.888;9.226;2023-09-07T02:21:08;5.18;;;4.78;;
7939;SDS011;4015;48.888;9.226;2023-09-07T02:23:33;5.47;;;4.97;;
7939;SDS011;4015;48.888;9.226;2023-09-07T02:26:00;5.70;;;4.82;;
7939;SDS011;4015;48.888;9.226;2023-09-07T02:28:25;5.38;;;4.88;;
7939;SDS011;4015;48.888;9.226;2023-09-07T02:30:51;5.63;;;5.03;;
7939;SDS011;4015;48.888;9.226;2023-09-07T02:33:17;5.05;;;4.40;;
7939;SDS011;4015;48.888;9.226;2023-09-07T02:35:43;5.22;;;4.50;;
7939;SDS011;4015;48.888;9.226;2023-09-07T02:38:08;5.00;;;4.10;;
7939;SDS011;4015;48.888;9.226;2023-09-07T02:40:39;5.03;;;4.50;;
7939;SDS011;4015;48.888;9.226;2023-09-07T02:43:07;4.40;;;4.00;;
7939;SDS011;4015;48.888;9.226;2023-09-07T02:45:32;7.95;;;4.70;;
7939;SDS011;4015;48.888;9.226;2023-09-07T02:47:57;4.45;;;4.13;;
7939;SDS011;4015;48.888;9.226;2023-09-07T02:50:23;4.95;;;4.55;;
7939;SDS011;4015;48.888;9.226;2023-09-07T02:52:48;4.95;;;4.45;;
7939;SDS011;4015;48.888;9.226;2023-09-07T02:55:13;4.35;;;3.92;;
7939;SDS011;4015;48.888;9.226;2023-09-07T02:57:38;5.22;;;4.00;;
7939;SDS011;4015;48.888;9.226;2023-09-07T03:00:04;5.50;;;4.47;;
7939;SDS011;4015;48.888;9.226;2023-09-07T03:02:34;4.75;;;4.25;;
7939;SDS011;4015;48.888;9.226;2023-09-07T03:05:00;4.95;;;4.45;;
7939;SDS011;4015;48.888;9.226;2023-09-07T03:07:26;4.60;;;4.22;;
7939;SDS011;4015;48.888;9.226;2023-09-07T03:09:52;5.93;;;4.30;;
7939;SDS011;4015;48.888;9.226;2023-09-07T03:12:17;5.38;;;4.35;;
7939;SDS011;4015;48.888;9.226;2023-09-07T03:14:43;5.10;;;4.60;;
7939;SDS011;4015;48.888;9.226;2023-09-07T03:17:09;5.97;;;4.60;;
7939;SDS011;4015;48.888;9.226;2023-09-07T03:19:35;5.65;;;4.45;;
7939;SDS011;4015;48.888;9.226;2023-09-07T03:22:01;5.22;;;4.72;;
7939;SDS011;4015;48.888;9.226;2023-09-07T03:24:26;6.57;;;5.25;;
7939;SDS011;4015;48.888;9.226;2023-09-07T03:26:53;5.45;;;4.90;;
7939;SDS011;4015;48.888;9.226;2023-09-07T03:29:18;5.07;;;4.60;;
7939;SDS011;4015;48.888;9.226;2023-09-07T03:31:43;5.68;;;4.60;;
7939;SDS011;4015;48.888;9.226;2023-09-07T03:34:08;6.63;;;4.57;;
7939;SDS011;4015;48.888;9.226;2023-09-07T03:36:34;5.07;;;4.57;;
7939;SDS011;4015;48.888;9.226;2023-09-07T03:38:59;5.60;;;4.63;;
7939;SDS011;4015;48.888;9.226;2023-09-07T03:41:24;6.22;;;5.05;;
7939;SDS011;4015;48.888;9.226;2023-09-07T03:43:55;5.10;;;4.55;;
7939;SDS011;4015;48.888;9.226;2023-09-07T03:46:20;5.53;;;4.45;;
7939;SDS011;4015;48.888;9.226;2023-09-07T03:48:45;5.95;;;4.65;;
7939;SDS011;4015;48.888;9.226;2023-09-07T03:51:11;5.70;;;5.10;;
7939;SDS011;4015;48.888;9.226;2023-09-07T03:53:36;5.13;;;4.45;;
7939;SDS011;4015;48.888;9.226;2023-09-07T03:56:01;6.53;;;4.13;;
7939;SDS011;4015;48.888;9.226;2023-09-07T03:58:28;5.90;;;4.78;;
7939;SDS011;4015;48.888;9.226;2023-09-07T04:00:54;5.43;;;4.88;;
7939;SDS011;4015;48.888;9.226;2023-09-07T04:03:19;6.47;;;4.75;;
7939;SDS011;4015;48.888;9.226;2023-09-07T04:05:44;11.32;;;4.70;;
7939;SDS011;4015;48.888;9.226;2023-09-07T04:08:09;7.22;;;4.75;;
7939;SDS011;4015;48.888;9.226;2023-09-07T04:10:38;6.88;;;4.97;;
7939;SDS011;4015;48.888;9.226;2023-09-07T04:13:04;7.35;;;5.50;;
7939;SDS011;4015;48.888;9.226;2023-09-07T04:15:30;5.38;;;4.88;;
7939;SDS011;4015;48.888;9.226;2023-09-07T04:17:56;6.53;;;4.65;;
7939;SDS011;4015;48.888;9.226;2023-09-07T04:20:21;5.85;;;5.00;;
7939;SDS011;4015;48.888;9.226;2023-09-07T04:22:47;5.15;;;4.70;;
7939;SDS011;4015;48.888;9.226;2023-09-07T04:25:12;5.80;;;4.88;;
7939;SDS011;4015;48.888;9.226;2023-09-07T04:27:38;7.15;;;4.80;;
7939;SDS011;4015;48.888;9.226;2023-09-07T04:30:03;11.27;;;4.78;;
7939;SDS011;4015;48.888;9.226;2023-09-07T04:32:29;11.05;;;5.35;;
7939;SDS011;4015;48.888;9.226;2023-09-07T04:34:55;6.95;;;5.15;;
7939;SDS011;4015;48.888;9.226;2023-09-07T04:37:21;8.57;;;4.93;;
7939;SDS011;4015;48.888;9.226;2023-09-07T04:39:50;7.32;;;4.65;;
7939;SDS011;4015;48.888;9.226;2023-09-07T04:42:18;5.85;;;5.30;;
7939;SDS011;4015;48.888;9.226;2023-09-07T04:44:45;5.50;;;5.00;;
7939;SDS011;4015;48.888;9.226;2023-09-07T04:47:11;8.48;;;5.78;;
7939;SDS011;4015;48.888;9.226;2023-09-07T04:49:36;5.40;;;4.90;;
7939;SDS011;4015;48.888;9.226;2023-09-07T04:52:01;5.63;;;5.13;;
7939;SDS011;4015;48.888;9.226;2023-09-07T04:54:27;6.28;;;4.70;;
7939;SDS011;4015;48.888;9.226;2023-09-07T04:56:52;7.97;;;5.32;;
7939;SDS011;4015;48.888;9.226;2023-09-07T04:59:17;5.43;;;4.75;;
7939;SDS011;4015;48.888;9.226;2023-09-07T05:01:43;6.50;;;5.43;;
7939;SDS011;4015;48.888;9.226;2023-09-07T05:04:08;5.45;;;4.55;;
7939;SDS011;4015;48.888;9.226;2023-09-07T05:06:33;5.82;;;4.82;;
7939;SDS011;4015;48.888;9.226;2023-09-07T05:09:02;5.35;;;4.70;;
7939;SDS011;4015;48.888;9.226;2023-09-07T05:11:28;6.88;;;5.20;;
7939;SDS011;4015;48.888;9.226;2023-09-07T05:13:54;6.13;;;5.40;;
7939;SDS011;4015;48.888;9.226;2023-09-07T05:16:19;5.43;;;4.88;;
7939;SDS011;4015;48.888;9.226;2023-09-07T05:18:44;4.93;;;4.45;;
7939;SDS011;4015;48.888;9.226;2023-09-07T05:21:13;8.68;;;4.68;;
7939;SDS011;4015;48.888;9.226;2023-09-07T05:23:39;6.20;;;5.05;;
7939;SDS011;4015;48.888;9.226;2023-09-07T05:26:05;5.10;;;4.53;;
7939;SDS011;4015;48.888;9.226;2023-09-07T05:28:30;4.90;;;4.50;;
7939;SDS011;4015;48.888;9.226;2023-09-07T05:30:56;4.85;;;4.40;;
7939;SDS011;4015;48.888;9.226;2023-09-07T05:33:21;7.43;;;4.70;;
7939;SDS011;4015;48.888;9.226;2023-09-07T05:35:46;6.93;;;5.15;;
7939;SDS011;4015;48.888;9.226;2023-09-07T05:38:12;7.20;;;4.97;;
7939;SDS011;4015;48.888;9.226;2023-09-07T05:40:38;5.72;;;5.05;;
7939;SDS011;4015;48.888;9.226;2023-09-07T05:43:05;7.03;;;4.82;;
7939;SDS011;4015;48.888;9.226;2023-09-07T05:45:34;6.93;;;4.82;;
7939;SDS011;4015;48.888;9.226;2023-09-07T05:48:03;6.85;;;5.75;;
7939;SDS011;4015;48.888;9.226;2023-09-07T05:50:29;5.40;;;4.88;;
7939;SDS011;4015;48.888;9.226;2023-09-07T05:52:54;6.05;;;5.28;;
7939;SDS011;4015;48.888;9.226;2023-09-07T05:55:20;7.70;;;4.88;;
7939;SDS011;4015;48.888;9.226;2023-09-07T05:57:45;5.30;;;4.03;;
7939;SDS011;4015;48.888;9.226;2023-09-07T06:00:11;7.40;;;5.18;;
7939;SDS011;4015;48.888;9.226;2023-09-07T06:02:38;6.85;;;4.85;;
7939;SDS011;4015;48.888;9.226;2023-09-07T06:05:04;5.63;;;5.10;;
7939;SDS011;4015;48.888;9.226;2023-09-07T06:07:29;5.28;;;4.55;;
7939;SDS011;4015;48.888;9.226;2023-09-07T06:09:55;6.20;;;4.57;;
7939;SDS011;4015;48.888;9.226;2023-09-07T06:12:20;6.13;;;4.80;;
7939;SDS011;4015;48.888;9.226;2023-09-07T06:14:45;7.65;;;4.70;;
7939;SDS011;4015;48.888;9.226;2023-09-07T06:17:11;7.03;;;4.80;;
7939;SDS011;4015;48.888;9.226;2023-09-07T06:19:37;7.70;;;4.38;;
7939;SDS011;4015;48.888;9.226;2023-09-07T06:22:02;6.97;;;4.10;;
7939;SDS011;4015;48.888;9.226;2023-09-07T06:24:28;8.32;;;4.43;;
7939;SDS011;4015;48.888;9.226;2023-09-07T06:26:53;10.35;;;4.53;;
7939;SDS011;4015;48.888;9.226;2023-09-07T06:29:18;12.05;;;5.13;;
7939;SDS011;4015;48.888;9.226;2023-09-07T06:31:43;6.05;;;4.43;;
7939;SDS011;4015;48.888;9.226;2023-09-07T06:34:09;6.78;;;4.45;;
7939;SDS011;4015;48.888;9.226;2023-09-07T06:36:35;5.00;;;4.50;;
7939;SDS011;4015;48.888;9.226;2023-09-07T06:39:00;5.25;;;3.90;;
7939;SDS011;4015;48.888;9.226;2023-09-07T06:41:25;6.95;;;4.20;;
7939;SDS011;4015;48.888;9.226;2023-09-07T06:43:51;4.97;;;4.35;;
7939;SDS011;4015;48.888;9.226;2023-09-07T06:46:16;5.47;;;4.28;;
7939;SDS011;4015;48.888;9.226;2023-09-07T06:48:42;6.03;;;4.40;;
7939;SDS011;4015;48.888;9.226;2023-09-07T06:51:07;4.45;;;4.05;;
7939;SDS011;4015;48.888;9.226;2023-09-07T06:53:34;6.05;;;4.55;;
7939;SDS011;4015;48.888;9.226;2023-09-07T06:56:00;5.80;;;3.75;;
7939;SDS011;4015;48.888;9.226;2023-09-07T06:58:26;4.53;;;4.13;;
7939;SDS011;4015;48.888;9.226;2023-09-07T07:00:52;7.30;;;3.97;;
7939;SDS011;4015;48.888;9.226;2023-09-07T07:03:21;5.22;;;3.65;;
7939;SDS011;4015;48.888;9.226;2023-09-07T07:05:46;4.53;;;3.90;;
7939;SDS011;4015;48.888;9.226;2023-09-07T07:08:12;7.53;;;4.10;;
7939;SDS011;4015;48.888;9.226;2023-09-07T07:10:37;4.85;;;4.28;;
7939;SDS011;4015;48.888;9.226;2023-09-07T07:13:03;4.28;;;3.88;;
7939;SDS011;4015;48.888;9.226;2023-09-07T07:15:28;5.30;;;4.20;;
7939;SDS011;4015;48.888;9.226;2023-09-07T07:17:53;4.93;;;3.92;;
7939;SDS011;4015;48.888;9.226;2023-09-07T07:20:19;6.03;;;4.15;;
7939;SDS011;4015;48.888;9.226;2023-09-07T07:22:44;4.38;;;3.97;;
7939;SDS011;4015;48.888;9.226;2023-09-07T07:25:10;5.57;;;4.32;;
7939;SDS011;4015;48.888;9.226;2023-09-07T07:27:35;5.80;;;4.65;;
7939;SDS011;4015;48.888;9.226;2023-09-07T07:30:01;8.45;;;3.88;;
7939;SDS011;4015;48.888;9.226;2023-09-07T07:32:27;5.15;;;4.22;;
7939;SDS011;4015;48.888;9.226;2023-09-07T07:34:52;4.53;;;3.92;;
7939;SDS011;4015;48.888;9.226;2023-09-07T07:37:18;5.22;;;4.38;;
7939;SDS011;4015;48.888;9.226;2023-09-07T07:39:43;5.25;;;4.10;;
7939;SDS011;4015;48.888;9.226;2023-09-07T07:42:08;5.75;;;4.43;;
7939;SDS011;4015;48.888;9.226;2023-09-07T07:44:34;6.85;;;4.15;;
7939;SDS011;4015;48.888;9.226;2023-09-07T07:46:59;3.65;;;3.35;;
7939;SDS011;4015;48.888;9.226;2023-09-07T07:49:24;8.13;;;3.72;;
7939;SDS011;4015;48.888;9.226;2023-09-07T07:51:50;4.65;;;3.67;;
7939;SDS011;4015;48.888;9.226;2023-09-07T07:54:16;6.13;;;4.35;;
7939;SDS011;4015;48.888;9.226;2023-09-07T07:56:41;4.47;;;3.63;;
7939;SDS011;4015;48.888;9.226;2023-09-07T07:59:07;4.35;;;3.70;;
7939;SDS011;4015;48.888;9.226;2023-09-07T08:01:32;5.43;;;4.32;;
7939;SDS011;4015;48.888;9.226;2023-09-07T08:03:57;4.88;;;3.45;;
7939;SDS011;4015;48.888;9.226;2023-09-07T08:06:23;4.80;;;4.15;;
7939;SDS011;4015;48.888;9.226;2023-09-07T08:08:48;4.20;;;3.50;;
7939;SDS011;4015;48.888;9.226;2023-09-07T08:11:13;7.35;;;4.53;;
7939;SDS011;4015;48.888;9.226;2023-09-07T08:13:39;4.47;;;3.75;;
7939;SDS011;4015;48.888;9.226;2023-09-07T08:16:05;5.75;;;4.38;;
7939;SDS011;4015;48.888;9.226;2023-09-07T08:18:34;5.82;;;4.60;;
7939;SDS011;4015;48.888;9.226;2023-09-07T08:21:00;5.57;;;4.00;;
7939;SDS011;4015;48.888;9.226;2023-09-07T08:23:26;4.40;;;4.00;;
7939;SDS011;4015;48.888;9.226;2023-09-07T08:25:51;4.32;;;3.92;;
7939;SDS011;4015;48.888;9.226;2023-09-07T08:28:17;4.88;;;3.88;;
7939;SDS011;4015;48.888;9.226;2023-09-07T08:30:43;6.00;;;4.13;;
7939;SDS011;4015;48.888;9.226;2023-09-07T08:33:10;4.80;;;4.30;;
7939;SDS011;4015;48.888;9.226;2023-09-07T08:35:35;6.82;;;4.18;;
7939;SDS011;4015;48.888;9.226;2023-09-07T08:38:02;6.45;;;4.40;;
7939;SDS011;4015;48.888;9.226;2023-09-07T08:40:30;7.57;;;4.60;;
7939;SDS011;4015;48.888;9.226;2023-09-07T08:43:00;5.22;;;4.35;;
7939;SDS011;4015;48.888;9.226;2023-09-07T08:45:28;5.63;;;4.30;;
7939;SDS011;4015;48.888;9.226;2023-09-07T08:47:56;6.72;;;4.32;;
7939;SDS011;4015;48.888;9.226;2023-09-07T08:50:23;5.88;;;4.40;;
7939;SDS011;4015;48.888;9.226;2023-09-07T08:52:49;5.35;;;4.72;;
7939;SDS011;4015;48.888;9.226;2023-09-07T08:55:17;8.57;;;4.60;;
7939;SDS011;4015;48.888;9.226;2023-09-07T08:57:42;5.15;;;4.40;;
7939;SDS011;4015;48.888;9.226;2023-09-07T09:00:08;12.43;;;4.15;;
7939;SDS011;4015;48.888;9.226;2023-09-07T09:02:38;4.70;;;4.25;;
7939;SDS011;4015;48.888;9.226;2023-09-07T09:05:04;7.78;;;4.85;;
7939;SDS011;4015;48.888;9.226;2023-09-07T09:07:30;5.85;;;4.50;;
7939;SDS011;4015;48.888;9.226;2023-09-07T09:10:03;8.88;;;4.60;;
7939;SDS011;4015;48.888;9.226;2023-09-07T09:12:32;4.63;;;4.22;;
7939;SDS011;4015;48.888;9.226;2023-09-07T09:14:59;5.70;;;4.28;;
7939;SDS011;4015;48.888;9.226;2023-09-07T09:17:25;4.45;;;4.05;;
7939;SDS011;4015;48.888;9.226;2023-09-07T09:19:51;4.88;;;4.47;;
7939;SDS011;4015;48.888;9.226;2023-09-07T09:22:16;5.70;;;4.78;;
7939;SDS011;4015;48.888;9.226;2023-09-07T09:24:42;4.55;;;4.03;;
7939;SDS011;4015;48.888;9.226;2023-09-07T09:27:07;5.57;;;4.30;;
7939;SDS011;4015;48.888;9.226;2023-09-07T09:29:33;4.82;;;4.07;;
7939;SDS011;4015;48.888;9.226;2023-09-07T09:32:00;5.25;;;4.03;;
7939;SDS011;4015;48.888;9.226;2023-09-07T09:34:30;4.97;;;4.10;;
7939;SDS011;4015;48.888;9.226;2023-09-07T09:36:57;5.75;;;4.05;;
7939;SDS011;4015;48.888;9.226;2023-09-07T09:39:23;4.85;;;4.45;;
7939;SDS011;4015;48.888;9.226;2023-09-07T09:41:49;7.32;;;4.30;;
7939;SDS011;4015;48.888;9.226;2023-09-07T09:44:15;4.00;;;3.60;;
7939;SDS011;4015;48.888;9.226;2023-09-07T09:46:41;8.90;;;4.55;;
7939;SDS011;4015;48.888;9.226;2023-09-07T09:49:08;6.25;;;4.25;;
7939;SDS011;4015;48.888;9.226;2023-09-07T09:51:36;6.72;;;4.45;;
7939;SDS011;4015;48.888;9.226;2023-09-07T09:54:03;4.75;;;4.35;;
7939;SDS011;4015;48.888;9.226;2023-09-07T09:56:30;7.68;;;4.05;;
7939;SDS011;4015;48.888;9.226;2023-09-07T09:58:55;4.43;;;4.03;;
7939;SDS011;4015;48.888;9.226;2023-09-07T10:01:21;4.57;;;4.18;;
7939;SDS011;4015;48.888;9.226;2023-09-07T10:03:47;5.00;;;3.78;;
7939;SDS011;4015;48.888;9.226;2023-09-07T10:06:18;5.13;;;3.40;;
7939;SDS011;4015;48.888;9.226;2023-09-07T10:09:06;4.28;;;3.60;;
7939;SDS011;4015;48.888;9.226;2023-09-07T10:11:36;5.07;;;3.83;;
7939;SDS011;4015;48.888;9.226;2023-09-07T10:14:03;5.47;;;3.97;;
7939;SDS011;4015;48.888;9.226;2023-09-07T10:16:43;6.25;;;4.20;;
7939;SDS011;4015;48.888;9.226;2023-09-07T10:19:14;4.72;;;4.18;;
7939;SDS011;4015;48.888;9.226;2023-09-07T10:21:46;5.88;;;4.03;;
7939;SDS011;4015;48.888;9.226;2023-09-07T10:24:23;5.90;;;3.60;;
7939;SDS011;4015;48.888;9.226;2023-09-07T10:26:56;3.97;;;3.65;;
7939;SDS011;4015;48.888;9.226;2023-09-07T10:29:25;5.78;;;3.78;;
7939;SDS011;4015;48.888;9.226;2023-09-07T10:31:52;6.03;;;3.85;;
7939;SDS011;4015;48.888;9.226;2023-09-07T10:34:18;4.45;;;3.53;;
7939;SDS011;4015;48.888;9.226;2023-09-07T10:36:43;7.43;;;3.67;;
7939;SDS011;4015;48.888;9.226;2023-09-07T10:39:09;3.58;;;3.28;;
7939;SDS011;4015;48.888;9.226;2023-09-07T10:41:41;3.85;;;3.38;;
7939;SDS011;4015;48.888;9.226;2023-09-07T10:44:07;5.38;;;3.55;;
7939;SDS011;4015;48.888;9.226;2023-09-07T10:46:35;3.67;;;3.38;;
7939;SDS011;4015;48.888;9.226;2023-09-07T10:49:02;3.67;;;3.38;;
7939;SDS011;4015;48.888;9.226;2023-09-07T10:51:28;4.85;;;3.20;;
7939;SDS011;4015;48.888;9.226;2023-09-07T10:53:54;4.07;;;3.55;;
7939;SDS011;4015;48.888;9.226;2023-09-07T10:56:20;4.85;;;3.33;;
7939;SDS011;4015;48.888;9.226;2023-09-07T10:58:50;4.60;;;3.10;;
7939;SDS011;4015;48.888;9.226;2023-09-07T11:01:20;4.85;;;3.38;;
7939;SDS011;4015;48.888;9.226;2023-09-07T11:03:45;3.47;;;3.17;;
7939;SDS011;4015;48.888;9.226;2023-09-07T11:06:18;3.75;;;3.28;;
7939;SDS011;4015;48.888;9.226;2023-09-07T11:08:48;3.90;;;3.10;;
7939;SDS011;4015;48.888;9.226;2023-09-07T11:11:14;4.38;;;3.08;;
7939;SDS011;4015;48.888;9.226;2023-09-07T11:13:40;3.85;;;3.15;;
7939;SDS011;4015;48.888;9.226;2023-09-07T11:16:08;3.60;;;3.10;;
7939;SDS011;4015;48.888;9.226;2023-09-07T11:18:35;5.43;;;3.22;;
7939;SDS011;4015;48.888;9.226;2023-09-07T11:21:01;3.30;;;2.75;;
7939;SDS011;4015;48.888;9.226;2023-09-07T11:23:29;3.40;;;3.05;;
7939;SDS011;4015;48.888;9.226;2023-09-07T11:25:56;3.75;;;3.00;;
7939;SDS011;4015;48.888;9.226;2023-09-07T11:28:23;3.00;;;2.70;;
7939;SDS011;4015;48.888;9.226;2023-09-07T11:33:16;3.90;;;3.20;;
7939;SDS011;4015;48.888;9.226;2023-09-07T11:35:41;3.53;;;3.17;;
7939;SDS011;4015;48.888;9.226;2023-09-07T11:38:07;3.22;;;2.92;;
7939;SDS011;4015;48.888;9.226;2023-09-07T11:40:35;4.70;;;2.83;;
7939;SDS011;4015;48.888;9.226;2023-09-07T11:43:01;3.53;;;3.20;;
7939;SDS011;4015;48.888;9.226;2023-09-07T11:45:27;3.40;;;3.05;;
7939;SDS011;4015;48.888;9.226;2023-09-07T11:47:52;4.85;;;3.05;;
7939;SDS011;4015;48.888;9.226;2023-09-07T11:50:18;3.00;;;2.70;;
7939;SDS011;4015;48.888;9.226;2023-09-07T11:52:44;5.53;;;3.25;;
7939;SDS011;4015;48.888;9.226;2023-09-07T11:55:10;3.17;;;2.90;;
7939;SDS011;4015;48.888;9.226;2023-09-07T11:57:36;4.80;;;2.92;;
7939;SDS011;4015;48.888;9.226;2023-09-07T12:00:01;7.95;;;3.20;;
7939;SDS011;4015;48.888;9.226;2023-09-07T12:02:28;3.38;;;3.05;;
7939;SDS011;4015;48.888;9.226;2023-09-07T12:04:53;4.45;;;2.92;;
7939;SDS011;4015;48.888;9.226;2023-09-07T12:07:19;3.30;;;3.00;;
7939;SDS011;4015;48.888;9.226;2023-09-07T12:09:44;4.97;;;2.97;;
7939;SDS011;4015;48.888;9.226;2023-09-07T12:12:10;3.78;;;2.75;;
7939;SDS011;4015;48.888;9.226;2023-09-07T12:14:36;3.80;;;2.90;;
7939;SDS011;4015;48.888;9.226;2023-09-07T12:17:01;3.30;;;3.00;;
7939;SDS011;4015;48.888;9.226;2023-09-07T12:19:27;5.88;;;2.75;;
7939;SDS011;4015;48.888;9.226;2023-09-07T12:21:52;3.40;;;3.10;;
7939;SDS011;4015;48.888;9.226;2023-09-07T12:24:17;3.35;;;3.05;;
7939;SDS011;4015;48.888;9.226;2023-09-07T12:26:43;3.15;;;2.70;;
7939;SDS011;4015;48.888;9.226;2023-09-07T12:29:08;4.05;;;2.85;;
7939;SDS011;4015;48.888;9.226;2023-09-07T12:31:33;3.65;;;3.03;;
7939;SDS011;4015;48.888;9.226;2023-09-07T12:33:59;3.15;;;2.83;;
7939;SDS011;4015;48.888;9.226;2023-09-07T12:36:24;2.90;;;2.58;;
7939;SDS011;4015;48.888;9.226;2023-09-07T12:38:53;3.92;;;3.20;;
7939;SDS011;4015;48.888;9.226;2023-09-07T12:41:18;3.78;;;3.25;;
7939;SDS011;4015;48.888;9.226;2023-09-07T12:43:44;5.35;;;2.92;;
7939;SDS011;4015;48.888;9.226;2023-09-07T12:46:09;3.10;;;2.85;;
7939;SDS011;4015;48.888;9.226;2023-09-07T12:48:35;4.10;;;2.83;;
7939;SDS011;4015;48.888;9.226;2023-09-07T12:51:00;2.80;;;2.60;;
7939;SDS011;4015;48.888;9.226;2023-09-07T12:53:25;3.00;;;2.78;;
7939;SDS011;4015;48.888;9.226;2023-09-07T12:55:54;5.50;;;3.10;;
7939;SDS011;4015;48.888;9.226;2023-09-07T12:58:19;5.03;;;2.92;;
7939;SDS011;4015;48.888;9.226;2023-09-07T13:00:45;2.90;;;2.70;;
7939;SDS011;4015;48.888;9.226;2023-09-07T13:03:13;3.13;;;2.90;;
7939;SDS011;4015;48.888;9.226;2023-09-07T13:05:39;5.38;;;2.83;;
7939;SDS011;4015;48.888;9.226;2023-09-07T13:08:04;5.80;;;2.83;;
7939;SDS011;4015;48.888;9.226;2023-09-07T13:10:31;3.13;;;2.75;;
7939;SDS011;4015;48.888;9.226;2023-09-07T13:12:56;5.30;;;3.33;;
7939;SDS011;4015;48.888;9.226;2023-09-07T13:15:22;5.65;;;2.88;;
7939;SDS011;4015;48.888;9.226;2023-09-07T13:17:47;2.92;;;2.55;;
7939;SDS011;4015;48.888;9.226;2023-09-07T13:20:12;4.93;;;2.97;;
7939;SDS011;4015;48.888;9.226;2023-09-07T13:22:38;3.00;;;2.80;;
7939;SDS011;4015;48.888;9.226;2023-09-07T13:25:04;3.38;;;3.08;;
7939;SDS011;4015;48.888;9.226;2023-09-07T13:27:30;3.50;;;2.75;;
7939;SDS011;4015;48.888;9.226;2023-09-07T13:29:56;4.07;;;3.10;;
7939;SDS011;4015;48.888;9.226;2023-09-07T13:32:22;3.80;;;3.03;;
7939;SDS011;4015;48.888;9.226;2023-09-07T13:34:47;3.67;;;2.80;;
7939;SDS011;4015;48.888;9.226;2023-09-07T13:37:13;2.55;;;2.38;;
7939;SDS011;4015;48.888;9.226;2023-09-07T13:39:38;3.47;;;2.53;;
7939;SDS011;4015;48.888;9.226;2023-09-07T13:42:04;4.53;;;3.03;;
7939;SDS011;4015;48.888;9.226;2023-09-07T13:44:29;3.63;;;2.83;;
7939;SDS011;4015;48.888;9.226;2023-09-07T13:46:54;3.28;;;2.92;;
7939;SDS011;4015;48.888;9.226;2023-09-07T13:49:20;4.65;;;2.78;;
7939;SDS011;4015;48.888;9.226;2023-09-07T13:51:45;3.35;;;2.67;;
7939;SDS011;4015;48.888;9.226;2023-09-07T13:54:10;5.13;;;2.97;;
7939;SDS011;4015;48.888;9.226;2023-09-07T13:56:36;3.38;;;2.53;;
7939;SDS011;4015;48.888;9.226;2023-09-07T13:59:01;3.00;;;2.80;;
7939;SDS011;4015;48.888;9.226;2023-09-07T14:01:27;3.40;;;2.60;;
7939;SDS011;4015;48.888;9.226;2023-09-07T14:03:52;3.85;;;3.25;;
7939;SDS011;4015;48.888;9.226;2023-09-07T14:06:18;3.15;;;2.85;;
7939;SDS011;4015;48.888;9.226;2023-09-07T14:08:45;3.67;;;3.00;;
7939;SDS011;4015;48.888;9.226;2023-09-07T14:11:11;3.22;;;2.88;;
7939;SDS011;4015;48.888;9.226;2023-09-07T14:13:36;3.55;;;2.65;;
7939;SDS011;4015;48.888;9.226;2023-09-07T14:16:02;4.07;;;3.03;;
7939;SDS011;4015;48.888;9.226;2023-09-07T14:18:27;3.25;;;2.83;;
7939;SDS011;4015;48.888;9.226;2023-09-07T14:20:53;4.53;;;2.65;;
7939;SDS011;4015;48.888;9.226;2023-09-07T14:23:22;4.43;;;2.90;;
7939;SDS011;4015;48.888;9.226;2023-09-07T14:25:48;3.92;;;3.17;;
7939;SDS011;4015;48.888;9.226;2023-09-07T14:28:13;4.10;;;3.00;;
7939;SDS011;4015;48.888;9.226;2023-09-07T14:30:39;3.05;;;2.75;;
7939;SDS011;4015;48.888;9.226;2023-09-07T14:33:04;3.13;;;2.60;;
7939;SDS011;4015;48.888;9.226;2023-09-07T14:35:30;7.97;;;2.60;;
7939;SDS011;4015;48.888;9.226;2023-09-07T14:37:55;4.03;;;2.90;;
7939;SDS011;4015;48.888;9.226;2023-09-07T14:40:21;3.95;;;2.58;;
7939;SDS011;4015;48.888;9.226;2023-09-07T14:42:48;3.05;;;2.70;;
7939;SDS011;4015;48.888;9.226;2023-09-07T14:45:15;2.83;;;2.60;;
7939;SDS011;4015;48.888;9.226;2023-09-07T14:47:40;3.60;;;2.88;;
7939;SDS011;4015;48.888;9.226;2023-09-07T14:50:06;6.55;;;2.75;;
7939;SDS011;4015;48.888;9.226;2023-09-07T14:52:32;3.33;;;3.03;;
7939;SDS011;4015;48.888;9.226;2023-09-07T14:55:02;3.08;;;2.75;;
7939;SDS011;4015;48.888;9.226;2023-09-07T14:57:28;2.95;;;2.70;;
7939;SDS011;4015;48.888;9.226;2023-09-07T14:59:53;3.85;;;2.88;;
7939;SDS011;4015;48.888;9.226;2023-09-07T15:02:18;4.53;;;3.10;;
7939;SDS011;4015;48.888;9.226;2023-09-07T15:04:43;4.47;;;3.13;;
7939;SDS011;4015;48.888;9.226;2023-09-07T15:07:09;3.50;;;2.78;;
7939;SDS011;4015;48.888;9.226;2023-09-07T15:09:35;6.45;;;2.90;;
7939;SDS011;4015;48.888;9.226;2023-09-07T15:12:00;3.00;;;2.70;;